Terminal Aerodrome Forecast
Issued by NWS

Home | Current Version | Previous Version | Graphics & Text | Print | Product List | Glossary On
Versions: 1 2 3 4 5 6 7 8 9 10 11 12 13 14
000
FTUS43 KBIS 271042 AAA
TAFJMS
TAF AMD
KJMS 271042Z 2711/2806 20005KT P6SM VCFG SKC
     FM271500 22015KT P6SM BKN100
     FM272100 25015G25KT P6SM VCTS BKN060 BKN100CB
     FM280000 33015KT P6SM SCT050
     FM280400 31008KT P6SM SCT050=

USA.gov is the U.S. government's official web portal to all federal, state and local government web resources and services.